createdAt,value
2018-08-13T00:02:23.826Z,20.10
2018-08-13T00:04:52.125Z,20.10
2018-08-13T00:07:20.575Z,20.10
2018-08-13T00:09:49.475Z,20.10
2018-08-13T00:12:18.136Z,20.00
2018-08-13T00:14:46.778Z,20.00
2018-08-13T00:17:15.139Z,19.80
2018-08-13T00:19:43.511Z,19.70
2018-08-13T00:22:12.424Z,19.70
2018-08-13T00:24:40.971Z,19.60
2018-08-13T00:27:09.674Z,19.50
2018-08-13T00:29:38.908Z,19.40
2018-08-13T00:32:07.775Z,19.40
2018-08-13T00:34:36.379Z,19.30
2018-08-13T00:37:04.739Z,19.30
2018-08-13T00:39:33.353Z,19.30
2018-08-13T00:42:01.952Z,19.30
2018-08-13T00:44:30.891Z,19.30
2018-08-13T00:46:59.268Z,19.30
2018-08-13T00:49:27.751Z,19.20
2018-08-13T00:51:56.307Z,19.10
2018-08-13T00:54:24.777Z,19.00
2018-08-13T00:56:53.035Z,19.00
2018-08-13T00:59:21.455Z,19.00
2018-08-13T01:01:49.767Z,19.00
2018-08-13T01:04:18.943Z,19.00
2018-08-13T01:06:47.527Z,19.00
2018-08-13T01:09:16.293Z,18.90
2018-08-13T01:11:44.818Z,18.90
2018-08-13T01:14:13.471Z,18.90
2018-08-13T01:16:41.941Z,18.80
2018-08-13T01:19:10.588Z,19.00
2018-08-13T01:21:39.278Z,19.00
2018-08-13T01:24:07.895Z,19.00
2018-08-13T01:26:36.155Z,19.00
2018-08-13T01:29:05.215Z,19.10
2018-08-13T01:31:33.752Z,19.00
2018-08-13T01:34:02.361Z,18.90
2018-08-13T01:36:30.973Z,18.80
2018-08-13T01:38:59.688Z,18.70
2018-08-13T01:41:28.450Z,18.70
2018-08-13T01:43:56.759Z,18.50
2018-08-13T01:46:25.082Z,18.40
2018-08-13T01:48:53.380Z,18.40
2018-08-13T01:51:21.711Z,18.30
2018-08-13T01:53:49.987Z,18.40
2018-08-13T01:56:18.699Z,18.40
2018-08-13T01:58:47.320Z,18.30
2018-08-13T02:01:15.586Z,18.30
2018-08-13T02:03:44.929Z,18.20
2018-08-13T02:06:13.602Z,18.10
2018-08-13T02:08:42.347Z,18.20
2018-08-13T02:11:11.027Z,18.10
2018-08-13T02:13:39.624Z,18.10
2018-08-13T02:16:08.184Z,18.00
2018-08-13T02:18:36.513Z,18.00
2018-08-13T02:21:05.145Z,17.90
2018-08-13T02:23:34.095Z,18.00
2018-08-13T02:26:02.785Z,18.10
2018-08-13T02:28:31.612Z,18.00
2018-08-13T02:31:00.356Z,18.00
2018-08-13T02:33:29.576Z,18.00
2018-08-13T02:35:58.196Z,17.90
2018-08-13T02:38:27.015Z,17.90
2018-08-13T02:40:55.887Z,17.90
2018-08-13T02:43:24.174Z,17.80
2018-08-13T02:45:52.495Z,17.80
2018-08-13T02:48:20.772Z,17.80
2018-08-13T02:50:49.710Z,17.70
2018-08-13T02:53:18.350Z,17.70
2018-08-13T02:55:46.617Z,17.70
2018-08-13T02:58:15.645Z,17.70
2018-08-13T03:00:44.816Z,17.90
2018-08-13T03:03:13.678Z,18.00
2018-08-13T03:05:42.440Z,18.00
2018-08-13T03:08:11.381Z,18.00
2018-08-13T03:10:39.762Z,18.00
2018-08-13T03:13:08.673Z,18.00
2018-08-13T03:15:37.131Z,17.90
2018-08-13T03:18:05.807Z,17.80
2018-08-13T03:20:34.104Z,17.80
2018-08-13T03:23:02.712Z,17.70
2018-08-13T03:25:31.064Z,17.60
2018-08-13T03:27:59.452Z,17.60
2018-08-13T03:30:28.064Z,17.50
2018-08-13T03:32:56.360Z,17.50
2018-08-13T03:35:24.683Z,17.50
2018-08-13T03:37:53.203Z,17.50
2018-08-13T03:40:21.723Z,17.50
2018-08-13T03:42:50.104Z,17.50
2018-08-13T03:45:18.380Z,17.50
2018-08-13T03:47:46.644Z,17.50
2018-08-13T03:50:14.917Z,17.50
2018-08-13T03:52:43.501Z,17.50
2018-08-13T03:55:12.455Z,17.40
2018-08-13T03:57:42.007Z,17.40
2018-08-13T04:00:13.329Z,17.40
2018-08-13T04:02:41.736Z,17.30
2018-08-13T04:05:10.858Z,17.30
2018-08-13T04:07:39.944Z,17.30
2018-08-13T04:10:10.320Z,17.30
2018-08-13T04:12:40.249Z,17.20
2018-08-13T04:15:09.995Z,17.10
2018-08-13T04:17:38.606Z,17.10
2018-08-13T04:20:09.179Z,17.10
2018-08-13T04:22:38.115Z,17.10
2018-08-13T04:25:07.648Z,17.00
2018-08-13T04:27:36.462Z,17.00
2018-08-13T04:30:08.219Z,17.00
2018-08-13T04:32:36.887Z,17.00
2018-08-13T04:35:05.513Z,17.00
2018-08-13T04:37:33.936Z,17.00
2018-08-13T04:40:02.273Z,17.00
2018-08-13T04:42:30.991Z,17.10
2018-08-13T04:44:59.585Z,17.10
2018-08-13T04:47:28.252Z,17.10
2018-08-13T04:49:56.784Z,17.10
2018-08-13T04:52:25.263Z,17.10
2018-08-13T04:54:53.576Z,17.20
2018-08-13T04:57:22.215Z,17.20
2018-08-13T04:59:50.497Z,17.20
2018-08-13T05:02:18.963Z,17.30
2018-08-13T05:04:47.812Z,17.40
2018-08-13T05:07:16.838Z,17.70
2018-08-13T05:09:45.162Z,17.80
2018-08-13T05:12:13.712Z,17.80
2018-08-13T05:14:42.272Z,17.80
2018-08-13T05:17:10.970Z,17.80
2018-08-13T05:19:39.823Z,17.90
2018-08-13T05:22:08.683Z,18.00
2018-08-13T05:24:37.056Z,18.10
2018-08-13T05:27:05.492Z,18.10
2018-08-13T05:29:33.776Z,18.20
2018-08-13T05:32:02.351Z,18.20
2018-08-13T05:34:31.187Z,18.30
2018-08-13T05:37:00.108Z,18.30
2018-08-13T05:39:28.452Z,18.40
2018-08-13T05:41:57.100Z,18.40
2018-08-13T05:44:25.389Z,18.60
2018-08-13T05:46:53.860Z,18.80
2018-08-13T05:49:22.718Z,18.90
2018-08-13T05:51:51.023Z,19.10
2018-08-13T05:54:20.120Z,19.20
2018-08-13T05:56:48.399Z,19.30
2018-08-13T05:59:17.020Z,19.50
2018-08-13T06:01:45.308Z,19.60
2018-08-13T06:04:13.832Z,19.70
2018-08-13T06:06:42.485Z,19.70
2018-08-13T06:09:12.385Z,19.90
2018-08-13T06:11:41.127Z,20.00
2018-08-13T06:14:09.928Z,20.20
2018-08-13T06:16:38.723Z,20.30
2018-08-13T06:19:07.036Z,20.40
2018-08-13T06:21:35.602Z,20.60
2018-08-13T06:24:03.892Z,20.70
2018-08-13T06:26:32.399Z,20.90
2018-08-13T06:29:01.296Z,21.00
2018-08-13T06:31:29.607Z,21.20
2018-08-13T06:33:58.792Z,21.30
2018-08-13T06:36:27.830Z,21.40
2018-08-13T06:38:56.432Z,21.60
2018-08-13T06:41:24.988Z,21.70
2018-08-13T06:43:53.679Z,21.90
2018-08-13T06:46:22.510Z,22.10
2018-08-13T06:48:50.895Z,22.40
2018-08-13T06:51:19.483Z,22.60
2018-08-13T06:53:47.982Z,22.80
2018-08-13T06:56:16.298Z,23.10
2018-08-13T06:58:44.856Z,23.40
2018-08-13T07:01:13.496Z,23.70
2018-08-13T07:03:42.087Z,24.10
2018-08-13T07:06:10.395Z,24.50
2018-08-13T07:08:39.712Z,25.10
2018-08-13T07:11:08.263Z,25.60
2018-08-13T07:13:37.143Z,26.10
2018-08-13T07:16:05.572Z,26.30
2018-08-13T07:18:33.906Z,26.90
2018-08-13T07:21:02.317Z,27.20
2018-08-13T07:23:30.647Z,27.60
2018-08-13T07:25:58.939Z,27.80
2018-08-13T07:28:27.755Z,28.00
2018-08-13T07:30:56.133Z,28.20
2018-08-13T07:33:24.923Z,27.90
2018-08-13T07:35:53.356Z,27.80
2018-08-13T07:38:21.645Z,28.10
2018-08-13T07:40:50.361Z,28.70
2018-08-13T07:43:18.657Z,28.20
2018-08-13T07:45:46.997Z,27.40
2018-08-13T07:48:15.311Z,26.80
2018-08-13T07:50:43.626Z,27.30
2018-08-13T07:53:12.673Z,28.10
2018-08-13T07:55:41.788Z,28.70
2018-08-13T07:58:10.132Z,29.30
2018-08-13T08:00:38.669Z,30.00
2018-08-13T08:03:07.399Z,30.50
2018-08-13T08:05:35.683Z,31.00
2018-08-13T08:08:04.255Z,31.30
2018-08-13T08:10:32.936Z,31.40
2018-08-13T08:13:01.496Z,31.70
2018-08-13T08:15:29.779Z,31.50
2018-08-13T08:17:58.311Z,31.90
2018-08-13T08:20:27.171Z,31.40
2018-08-13T08:22:55.503Z,31.50
2018-08-13T08:25:23.791Z,31.80
2018-08-13T08:27:52.962Z,31.90
2018-08-13T08:30:21.568Z,32.20
2018-08-13T08:32:49.880Z,32.00
2018-08-13T08:35:18.618Z,31.20
2018-08-13T08:37:47.041Z,30.80
2018-08-13T08:40:17.499Z,30.20
2018-08-13T08:42:46.031Z,29.70
2018-08-13T08:45:17.243Z,29.70
2018-08-13T08:47:46.028Z,29.80
2018-08-13T08:50:15.112Z,30.50
2018-08-13T08:52:44.303Z,31.40
2018-08-13T08:55:12.877Z,31.70
2018-08-13T08:57:41.558Z,32.30
2018-08-13T09:00:17.951Z,32.90
2018-08-13T09:02:46.932Z,33.10
2018-08-13T09:05:16.111Z,33.60
2018-08-13T09:07:45.554Z,34.20
2018-08-13T09:10:14.113Z,33.90
2018-08-13T09:12:42.468Z,33.10
2018-08-13T09:15:13.944Z,32.80
2018-08-13T09:17:53.999Z,32.80
2018-08-13T09:20:33.508Z,33.00
2018-08-13T09:23:13.345Z,34.00
2018-08-13T09:28:00.245Z,34.60
2018-08-13T09:30:40.039Z,35.40
2018-08-13T09:33:19.693Z,35.80
2018-08-13T09:35:48.295Z,36.10
2018-08-13T09:38:16.591Z,35.50
2018-08-13T09:40:45.092Z,35.50
2018-08-13T09:43:13.723Z,35.80
2018-08-13T09:45:42.209Z,35.80
2018-08-13T09:48:10.752Z,36.00
2018-08-13T09:50:39.884Z,36.10
2018-08-13T09:53:08.152Z,36.50
2018-08-13T09:55:36.647Z,36.40
2018-08-13T09:58:04.915Z,36.20
2018-08-13T10:00:39.380Z,36.10
2018-08-13T10:03:08.123Z,35.90
2018-08-13T10:05:36.401Z,35.90
2018-08-13T10:08:05.481Z,36.10
2018-08-13T10:10:34.170Z,36.40
2018-08-13T10:13:02.788Z,36.70
2018-08-13T10:15:31.370Z,36.80
2018-08-13T10:17:59.730Z,36.70
2018-08-13T10:20:28.444Z,37.10
2018-08-13T10:22:57.349Z,37.60
2018-08-13T10:25:25.671Z,37.60
2018-08-13T10:27:54.279Z,37.50
2018-08-13T10:30:22.581Z,37.80
2018-08-13T10:32:51.620Z,37.30
2018-08-13T10:35:21.562Z,37.10
2018-08-13T10:37:50.236Z,37.60
2018-08-13T10:40:19.739Z,37.10
2018-08-13T10:42:48.840Z,37.00
2018-08-13T10:45:18.082Z,36.00
2018-08-13T10:47:46.648Z,34.90
2018-08-13T10:50:15.671Z,33.60
2018-08-13T10:52:44.307Z,33.70
2018-08-13T10:55:13.869Z,34.70
2018-08-13T10:57:42.973Z,34.80
2018-08-13T11:00:15.770Z,34.90
2018-08-13T11:02:44.357Z,36.20
2018-08-13T11:08:08.027Z,35.80
2018-08-13T11:10:36.591Z,33.70
2018-08-13T11:13:04.924Z,32.70
2018-08-13T11:15:33.772Z,34.00
2018-08-13T11:18:02.653Z,35.30
2018-08-13T11:20:31.003Z,35.90
2018-08-13T11:22:59.325Z,36.80
2018-08-13T11:25:27.811Z,37.30
2018-08-13T11:27:56.283Z,37.40
2018-08-13T11:30:24.634Z,37.40
2018-08-13T11:32:52.988Z,37.20
2018-08-13T11:35:21.588Z,37.80
2018-08-13T11:37:49.896Z,38.30
2018-08-13T11:40:18.948Z,38.10
2018-08-13T11:42:47.969Z,38.70
2018-08-13T11:45:16.643Z,38.90
2018-08-13T11:47:45.317Z,39.10
2018-08-13T11:50:17.656Z,38.40
2018-08-13T11:52:47.381Z,38.70
2018-08-13T11:55:16.905Z,39.10
2018-08-13T11:57:46.108Z,39.20
2018-08-13T12:00:14.967Z,39.50
2018-08-13T12:02:43.686Z,39.30
2018-08-13T12:05:13.987Z,38.70
2018-08-13T12:07:43.279Z,38.70
2018-08-13T12:10:12.924Z,37.80
2018-08-13T12:12:42.248Z,38.70
2018-08-13T12:15:11.666Z,39.30
2018-08-13T12:17:40.917Z,39.20
2018-08-13T12:20:12.680Z,39.30
2018-08-13T12:22:42.506Z,39.80
2018-08-13T12:25:10.926Z,39.70
2018-08-13T12:27:39.831Z,39.50
2018-08-13T12:30:09.576Z,40.60
2018-08-13T12:32:37.919Z,40.80
2018-08-13T12:35:06.368Z,40.20
2018-08-13T12:37:35.294Z,39.40
2018-08-13T12:40:04.444Z,39.50
2018-08-13T12:42:33.471Z,39.80
2018-08-13T12:45:02.997Z,39.50
2018-08-13T12:47:31.914Z,39.20
2018-08-13T12:50:00.430Z,39.40
2018-08-13T12:52:29.134Z,39.70
2018-08-13T12:54:58.125Z,39.50
2018-08-13T12:57:27.031Z,38.40
2018-08-13T12:59:55.599Z,38.10
2018-08-13T13:02:24.112Z,37.30
2018-08-13T13:04:52.756Z,36.40
2018-08-13T13:07:21.362Z,36.20
2018-08-13T13:09:50.264Z,36.70
2018-08-13T13:12:19.350Z,36.70
2018-08-13T13:14:47.754Z,35.90
2018-08-13T13:17:16.289Z,34.90
2018-08-13T13:19:44.659Z,33.70
2018-08-13T13:22:13.256Z,33.10
2018-08-13T13:24:41.605Z,32.60
2018-08-13T13:27:10.398Z,32.30
2018-08-13T13:29:39.327Z,31.90
2018-08-13T13:32:07.808Z,31.80
2018-08-13T13:34:36.254Z,31.50
2018-08-13T13:37:05.423Z,31.30
2018-08-13T13:39:34.147Z,31.20
2018-08-13T13:42:02.784Z,31.40
2018-08-13T13:44:31.447Z,31.50
2018-08-13T13:47:00.076Z,31.50
2018-08-13T13:49:28.850Z,31.60
2018-08-13T13:51:57.216Z,31.60
2018-08-13T13:54:26.279Z,31.20
2018-08-13T13:56:54.912Z,30.80
2018-08-13T13:59:23.773Z,30.50
2018-08-13T14:01:52.163Z,30.20
2018-08-13T14:04:20.850Z,29.80
2018-08-13T14:06:49.224Z,29.60
2018-08-13T14:09:18.334Z,29.50
2018-08-13T14:11:47.065Z,29.20
2018-08-13T14:14:15.395Z,28.80
2018-08-13T14:16:44.273Z,28.60
2018-08-13T14:19:13.111Z,28.10
2018-08-13T14:21:41.852Z,27.60
2018-08-13T14:24:10.240Z,27.30
2018-08-13T14:26:38.579Z,27.20
2018-08-13T14:29:07.283Z,27.00
2018-08-13T14:31:35.886Z,26.70
2018-08-13T14:34:04.660Z,26.60
2018-08-13T14:36:33.632Z,26.50
2018-08-13T14:39:01.935Z,26.30
2018-08-13T14:41:32.045Z,26.10
2018-08-13T14:44:03.037Z,25.10
2018-08-13T14:46:35.198Z,23.90
2018-08-13T14:52:03.364Z,21.70
2018-08-13T14:54:37.270Z,21.00
2018-08-13T14:57:10.103Z,20.60
2018-08-13T14:59:40.588Z,20.20
2018-08-13T15:02:16.184Z,19.90
2018-08-13T15:04:45.427Z,19.80
2018-08-13T15:07:14.184Z,19.70
2018-08-13T15:09:42.768Z,19.70
2018-08-13T15:12:11.707Z,19.50
2018-08-13T15:14:40.157Z,19.50
2018-08-13T15:17:08.414Z,19.40
2018-08-13T15:19:36.678Z,19.30
2018-08-13T15:22:05.439Z,19.40
2018-08-13T15:24:34.312Z,19.40
2018-08-13T15:27:03.133Z,19.50
2018-08-13T15:29:31.521Z,19.60
2018-08-13T15:32:01.427Z,19.50
2018-08-13T15:34:30.063Z,19.50
2018-08-13T15:36:58.905Z,19.40
2018-08-13T15:39:27.167Z,19.40
2018-08-13T15:41:56.385Z,19.40
2018-08-13T15:44:24.904Z,19.40
2018-08-13T15:46:53.632Z,19.40
2018-08-13T15:49:22.334Z,19.40
2018-08-13T15:51:51.315Z,19.30
2018-08-13T15:54:19.904Z,19.30
2018-08-13T15:56:48.182Z,19.30
2018-08-13T15:59:16.783Z,19.30
2018-08-13T16:01:45.547Z,19.40
2018-08-13T16:04:14.165Z,19.30
2018-08-13T16:06:42.806Z,19.40
2018-08-13T16:09:11.563Z,19.50
2018-08-13T16:11:40.157Z,19.60
2018-08-13T16:14:09.339Z,19.70
2018-08-13T16:16:37.704Z,19.70
2018-08-13T16:19:05.985Z,19.60
2018-08-13T16:21:34.596Z,19.50
2018-08-13T16:24:03.158Z,19.50
2018-08-13T16:26:32.054Z,19.50
2018-08-13T16:29:01.123Z,19.50
2018-08-13T16:31:29.464Z,19.50
2018-08-13T16:33:57.779Z,19.40
2018-08-13T16:36:26.672Z,19.20
2018-08-13T16:38:55.877Z,19.00
2018-08-13T16:41:25.123Z,19.00
2018-08-13T16:43:53.440Z,19.00
2018-08-13T16:46:22.003Z,19.10
2018-08-13T16:48:50.563Z,19.10
2018-08-13T16:51:19.208Z,19.20
2018-08-13T16:53:48.103Z,19.10
2018-08-13T16:56:16.680Z,19.10
2018-08-13T16:58:45.694Z,19.10
2018-08-13T17:01:13.971Z,19.20
2018-08-13T17:03:43.061Z,19.10
2018-08-13T17:06:11.632Z,19.10
2018-08-13T17:08:39.929Z,19.10
2018-08-13T17:11:09.140Z,19.10
2018-08-13T17:13:37.495Z,19.00
2018-08-13T17:16:07.163Z,19.00
2018-08-13T17:18:36.051Z,19.00
2018-08-13T17:21:04.379Z,18.90
2018-08-13T17:23:33.088Z,19.00
2018-08-13T17:26:01.467Z,19.00
2018-08-13T17:28:29.990Z,19.00
2018-08-13T17:30:58.316Z,19.00
2018-08-13T17:33:26.613Z,19.10
2018-08-13T17:35:54.903Z,19.10
2018-08-13T17:38:23.547Z,19.20
2018-08-13T17:40:51.959Z,19.20
2018-08-13T17:43:20.549Z,19.20
2018-08-13T17:45:48.829Z,19.20
2018-08-13T17:48:17.840Z,19.20
2018-08-13T17:50:46.551Z,19.10
2018-08-13T17:53:15.449Z,19.00
2018-08-13T17:55:43.735Z,19.10
2018-08-13T17:58:12.292Z,19.10
2018-08-13T18:00:40.841Z,19.20
2018-08-13T18:03:09.434Z,19.10
2018-08-13T18:05:38.041Z,19.10
2018-08-13T18:08:06.882Z,19.10
2018-08-13T18:10:35.499Z,19.10
2018-08-13T18:13:06.339Z,19.10
2018-08-13T18:15:34.660Z,19.20
2018-08-13T18:18:02.991Z,19.10
2018-08-13T18:20:31.312Z,19.20
2018-08-13T18:22:59.841Z,19.20
2018-08-13T18:25:28.572Z,19.20
2018-08-13T18:27:57.374Z,19.20
2018-08-13T18:30:27.343Z,19.20
2018-08-13T18:32:55.932Z,19.10
2018-08-13T18:35:24.451Z,19.00
2018-08-13T18:37:52.866Z,18.90
2018-08-13T18:40:26.223Z,18.90
2018-08-13T18:42:54.649Z,18.80
2018-08-13T18:45:23.125Z,18.80
2018-08-13T18:47:51.848Z,18.70
2018-08-13T18:50:21.632Z,18.70
2018-08-13T18:52:50.256Z,18.80
2018-08-13T18:55:20.970Z,18.70
2018-08-13T18:57:49.499Z,18.70
2018-08-13T19:00:20.089Z,18.70
2018-08-13T19:02:48.397Z,18.70
2018-08-13T19:05:18.356Z,18.70
2018-08-13T19:07:47.174Z,18.70
2018-08-13T19:10:16.664Z,18.70
2018-08-13T19:12:45.001Z,18.70
2018-08-13T19:15:17.110Z,18.70
2018-08-13T19:17:45.883Z,18.70
2018-08-13T19:20:14.966Z,18.70
2018-08-13T19:22:44.179Z,18.70
2018-08-13T19:25:16.136Z,18.70
2018-08-13T19:27:45.164Z,18.70
2018-08-13T19:30:15.349Z,18.60
2018-08-13T19:32:44.518Z,18.70
2018-08-13T19:35:12.952Z,18.60
2018-08-13T19:37:41.428Z,18.60
2018-08-13T19:40:14.918Z,18.60
2018-08-13T19:42:44.118Z,18.50
2018-08-13T19:45:13.724Z,18.50
2018-08-13T19:47:42.813Z,18.50
2018-08-13T19:50:12.811Z,18.50
2018-08-13T19:52:42.801Z,18.50
2018-08-13T19:55:12.560Z,18.50
2018-08-13T19:57:41.128Z,18.50
2018-08-13T20:00:12.190Z,18.50
2018-08-13T20:02:40.804Z,18.50
2018-08-13T20:05:10.186Z,18.40
2018-08-13T20:07:39.048Z,18.40
2018-08-13T20:10:09.241Z,18.40
2018-08-13T20:12:37.932Z,18.30
2018-08-13T20:15:08.483Z,18.30
2018-08-13T20:17:37.227Z,18.30
2018-08-13T20:20:09.376Z,18.30
2018-08-13T20:22:38.083Z,18.30
2018-08-13T20:25:08.097Z,18.30
2018-08-13T20:27:36.415Z,18.40
2018-08-13T20:30:05.923Z,18.40
2018-08-13T20:32:34.562Z,18.30
2018-08-13T20:35:02.856Z,18.30
2018-08-13T20:37:31.609Z,18.30
2018-08-13T20:40:00.143Z,18.30
2018-08-13T20:42:28.697Z,18.30
2018-08-13T20:44:57.411Z,18.30
2018-08-13T20:47:26.273Z,18.30
2018-08-13T20:49:54.572Z,18.30
2018-08-13T20:52:23.281Z,18.30
2018-08-13T20:54:52.156Z,18.30
2018-08-13T20:57:20.891Z,18.30
2018-08-13T20:59:49.143Z,18.30
2018-08-13T21:02:17.427Z,18.30
2018-08-13T21:04:45.979Z,18.30
2018-08-13T21:07:14.310Z,18.30
2018-08-13T21:09:42.647Z,18.20
2018-08-13T21:12:11.132Z,18.20
2018-08-13T21:14:39.596Z,18.20
2018-08-13T21:17:08.365Z,18.10
2018-08-13T21:19:37.183Z,18.10
2018-08-13T21:22:05.757Z,18.10
2018-08-13T21:24:36.447Z,18.20
2018-08-13T21:27:05.081Z,18.20
2018-08-13T21:29:33.620Z,18.10
2018-08-13T21:32:02.200Z,18.10
2018-08-13T21:34:30.823Z,18.10
2018-08-13T21:37:00.083Z,18.00
2018-08-13T21:39:28.349Z,18.00
2018-08-13T21:41:56.864Z,18.10
2018-08-13T21:44:24.924Z,18.10
2018-08-13T21:46:53.540Z,18.00
2018-08-13T21:49:24.820Z,18.00
2018-08-13T21:51:53.421Z,17.90
2018-08-13T21:54:22.030Z,17.80
2018-08-13T21:56:50.518Z,17.90
2018-08-13T21:59:19.144Z,17.90
2018-08-13T22:01:47.976Z,17.90
2018-08-13T22:04:17.695Z,18.00
2018-08-13T22:06:46.596Z,17.90
2018-08-13T22:09:15.195Z,18.00
2018-08-13T22:11:44.080Z,17.90
2018-08-13T22:14:12.340Z,18.00
2018-08-13T22:16:40.611Z,18.00
2018-08-13T22:19:09.709Z,18.00
2018-08-13T22:21:37.979Z,18.00
2018-08-13T22:24:17.853Z,18.10
2018-08-13T22:26:46.757Z,18.10
2018-08-13T22:29:15.035Z,18.00
2018-08-13T22:31:43.431Z,18.10
2018-08-13T22:34:11.703Z,18.10
2018-08-13T22:36:40.177Z,18.00
2018-08-13T22:39:09.312Z,17.90
2018-08-13T22:41:37.798Z,17.80
2018-08-13T22:44:06.128Z,17.80
2018-08-13T22:46:35.017Z,17.80
2018-08-13T22:49:03.743Z,17.70
2018-08-13T22:51:32.019Z,17.70
2018-08-13T22:54:00.324Z,17.70
2018-08-13T22:56:28.967Z,17.70
2018-08-13T22:58:57.264Z,17.70
2018-08-13T23:01:26.560Z,17.80
2018-08-13T23:03:55.082Z,17.80
2018-08-13T23:06:23.373Z,17.70
2018-08-13T23:08:51.779Z,17.70
2018-08-13T23:11:20.403Z,17.70
2018-08-13T23:13:48.941Z,17.60
2018-08-13T23:16:17.453Z,17.60
2018-08-13T23:18:46.009Z,17.60
2018-08-13T23:21:14.486Z,17.60
2018-08-13T23:23:42.783Z,17.60
2018-08-13T23:26:11.112Z,17.60
2018-08-13T23:28:39.775Z,17.60
2018-08-13T23:31:08.916Z,17.60
2018-08-13T23:33:37.796Z,17.50
2018-08-13T23:36:06.697Z,17.50
2018-08-13T23:38:34.986Z,17.50
2018-08-13T23:41:03.600Z,17.50
2018-08-13T23:43:32.195Z,17.50
2018-08-13T23:46:00.863Z,17.40
2018-08-13T23:48:29.381Z,17.40
2018-08-13T23:50:57.656Z,17.40
2018-08-13T23:53:26.288Z,17.10
2018-08-13T23:55:54.586Z,17.20
2018-08-13T23:58:23.130Z,17.30
